sensor_id;sensor_type;location;lat;lon;timestamp;temperature;humidity
22558;DHT22;11445;53.816;8.902;2023-07-20T00:02:22;15.80;99.90
22558;DHT22;11445;53.816;8.902;2023-07-20T00:04:50;15.70;99.90
22558;DHT22;11445;53.816;8.902;2023-07-20T00:07:17;15.70;99.90
22558;DHT22;11445;53.816;8.902;2023-07-20T00:09:43;15.70;99.90
22558;DHT22;11445;53.816;8.902;2023-07-20T00:12:10;15.70;99.90
22558;DHT22;11445;53.816;8.902;2023-07-20T00:14:37;15.70;99.90
22558;DHT22;11445;53.816;8.902;2023-07-20T00:17:04;15.70;99.90
22558;DHT22;11445;53.816;8.902;2023-07-20T00:19:31;15.70;99.90
22558;DHT22;11445;53.816;8.902;2023-07-20T00:21:59;15.70;99.90
22558;DHT22;11445;53.816;8.902;2023-07-20T00:24:27;15.70;99.90
22558;DHT22;11445;53.816;8.902;2023-07-20T00:26:54;15.70;99.90
22558;DHT22;11445;53.816;8.902;2023-07-20T00:29:20;15.70;99.90
22558;DHT22;11445;53.816;8.902;2023-07-20T00:31:47;15.70;99.90
22558;DHT22;11445;53.816;8.902;2023-07-20T00:34:14;15.70;99.90
22558;DHT22;11445;53.816;8.902;2023-07-20T00:36:41;15.70;99.90
22558;DHT22;11445;53.816;8.902;2023-07-20T00:39:09;15.70;99.90
22558;DHT22;11445;53.816;8.902;2023-07-20T00:41:36;15.70;99.90
22558;DHT22;11445;53.816;8.902;2023-07-20T00:44:04;15.80;99.90
22558;DHT22;11445;53.816;8.902;2023-07-20T00:46:31;15.80;99.90
22558;DHT22;11445;53.816;8.902;2023-07-20T00:48:59;15.90;99.90
22558;DHT22;11445;53.816;8.902;2023-07-20T00:51:26;15.90;99.90
22558;DHT22;11445;53.816;8.902;2023-07-20T00:53:53;15.90;99.90
22558;DHT22;11445;53.816;8.902;2023-07-20T00:56:21;15.80;99.90
22558;DHT22;11445;53.816;8.902;2023-07-20T00:58:48;15.90;99.90
22558;DHT22;11445;53.816;8.902;2023-07-20T01:01:15;15.90;99.90
22558;DHT22;11445;53.816;8.902;2023-07-20T01:03:42;15.80;99.90
22558;DHT22;11445;53.816;8.902;2023-07-20T01:06:18;15.80;99.90
22558;DHT22;11445;53.816;8.902;2023-07-20T01:08:56;15.80;99.90
22558;DHT22;11445;53.816;8.902;2023-07-20T01:11:31;15.70;99.90
22558;DHT22;11445;53.816;8.902;2023-07-20T01:14:00;15.70;99.90
22558;DHT22;11445;53.816;8.902;2023-07-20T01:16:27;15.70;99.90
22558;DHT22;11445;53.816;8.902;2023-07-20T01:18:54;15.70;99.90
22558;DHT22;11445;53.816;8.902;2023-07-20T01:21:26;15.70;99.90
22558;DHT22;11445;53.816;8.902;2023-07-20T01:24:29;15.70;99.90
22558;DHT22;11445;53.816;8.902;2023-07-20T01:27:36;15.70;99.90
22558;DHT22;11445;53.816;8.902;2023-07-20T01:30:43;15.70;99.90
22558;DHT22;11445;53.816;8.902;2023-07-20T01:33:15;15.70;99.90
22558;DHT22;11445;53.816;8.902;2023-07-20T01:35:43;15.70;99.90
22558;DHT22;11445;53.816;8.902;2023-07-20T01:38:12;15.70;99.90
22558;DHT22;11445;53.816;8.902;2023-07-20T01:40:40;15.60;99.90
22558;DHT22;11445;53.816;8.902;2023-07-20T01:43:07;15.60;99.90
22558;DHT22;11445;53.816;8.902;2023-07-20T01:45:34;15.60;99.90
22558;DHT22;11445;53.816;8.902;2023-07-20T01:48:01;15.70;99.90
22558;DHT22;11445;53.816;8.902;2023-07-20T01:50:30;15.80;99.90
22558;DHT22;11445;53.816;8.902;2023-07-20T01:52:56;15.80;99.90
22558;DHT22;11445;53.816;8.902;2023-07-20T01:55:23;15.90;99.90
22558;DHT22;11445;53.816;8.902;2023-07-20T01:57:50;15.90;99.90
22558;DHT22;11445;53.816;8.902;2023-07-20T02:00:18;16.00;99.90
22558;DHT22;11445;53.816;8.902;2023-07-20T02:02:46;16.00;99.90
22558;DHT22;11445;53.816;8.902;2023-07-20T02:05:13;16.00;99.90
22558;DHT22;11445;53.816;8.902;2023-07-20T02:07:41;16.10;99.90
22558;DHT22;11445;53.816;8.902;2023-07-20T02:10:09;16.10;99.90
22558;DHT22;11445;53.816;8.902;2023-07-20T02:12:36;16.10;99.90
22558;DHT22;11445;53.816;8.902;2023-07-20T02:15:03;16.10;99.90
22558;DHT22;11445;53.816;8.902;2023-07-20T02:17:30;16.10;99.90
22558;DHT22;11445;53.816;8.902;2023-07-20T02:19:57;16.00;99.90
22558;DHT22;11445;53.816;8.902;2023-07-20T02:22:24;16.10;99.90
22558;DHT22;11445;53.816;8.902;2023-07-20T02:24:52;16.10;99.90
22558;DHT22;11445;53.816;8.902;2023-07-20T02:27:19;16.10;99.90
22558;DHT22;11445;53.816;8.902;2023-07-20T02:29:45;16.10;99.90
22558;DHT22;11445;53.816;8.902;2023-07-20T02:32:12;16.10;99.90
22558;DHT22;11445;53.816;8.902;2023-07-20T02:34:39;16.10;99.90
22558;DHT22;11445;53.816;8.902;2023-07-20T02:37:07;16.00;99.90
22558;DHT22;11445;53.816;8.902;2023-07-20T02:39:34;16.00;99.90
22558;DHT22;11445;53.816;8.902;2023-07-20T02:42:02;15.90;99.90
22558;DHT22;11445;53.816;8.902;2023-07-20T02:44:28;16.00;99.90
22558;DHT22;11445;53.816;8.902;2023-07-20T02:46:55;16.00;99.90
22558;DHT22;11445;53.816;8.902;2023-07-20T02:49:22;15.90;99.90
22558;DHT22;11445;53.816;8.902;2023-07-20T02:51:49;16.00;99.90
22558;DHT22;11445;53.816;8.902;2023-07-20T02:54:16;16.00;99.90
22558;DHT22;11445;53.816;8.902;2023-07-20T02:56:42;15.90;99.90
22558;DHT22;11445;53.816;8.902;2023-07-20T02:59:11;15.90;99.90
22558;DHT22;11445;53.816;8.902;2023-07-20T03:01:37;15.90;99.90
22558;DHT22;11445;53.816;8.902;2023-07-20T03:04:04;15.90;99.90
22558;DHT22;11445;53.816;8.902;2023-07-20T03:06:31;15.90;99.90
22558;DHT22;11445;53.816;8.902;2023-07-20T03:09:01;15.90;99.90
22558;DHT22;11445;53.816;8.902;2023-07-20T03:11:29;15.90;99.90
22558;DHT22;11445;53.816;8.902;2023-07-20T03:13:56;15.80;99.90
22558;DHT22;11445;53.816;8.902;2023-07-20T03:16:24;15.80;99.90
22558;DHT22;11445;53.816;8.902;2023-07-20T03:18:52;15.70;99.90
22558;DHT22;11445;53.816;8.902;2023-07-20T03:21:19;15.70;99.90
22558;DHT22;11445;53.816;8.902;2023-07-20T03:23:45;15.60;99.90
22558;DHT22;11445;53.816;8.902;2023-07-20T03:26:12;15.60;99.90
22558;DHT22;11445;53.816;8.902;2023-07-20T03:28:39;15.60;99.90
22558;DHT22;11445;53.816;8.902;2023-07-20T03:31:06;15.50;99.90
22558;DHT22;11445;53.816;8.902;2023-07-20T03:33:34;15.50;99.90
22558;DHT22;11445;53.816;8.902;2023-07-20T03:36:01;15.50;99.90
22558;DHT22;11445;53.816;8.902;2023-07-20T03:38:28;15.50;99.90
22558;DHT22;11445;53.816;8.902;2023-07-20T03:40:56;15.40;99.90
22558;DHT22;11445;53.816;8.902;2023-07-20T03:43:24;15.40;99.90
22558;DHT22;11445;53.816;8.902;2023-07-20T03:45:52;15.40;99.90
22558;DHT22;11445;53.816;8.902;2023-07-20T03:48:19;15.40;99.90
22558;DHT22;11445;53.816;8.902;2023-07-20T03:50:49;15.30;99.90
22558;DHT22;11445;53.816;8.902;2023-07-20T03:53:17;15.40;99.90
22558;DHT22;11445;53.816;8.902;2023-07-20T03:55:44;15.40;99.90
22558;DHT22;11445;53.816;8.902;2023-07-20T03:58:12;15.30;99.90
22558;DHT22;11445;53.816;8.902;2023-07-20T04:00:39;15.30;99.90
22558;DHT22;11445;53.816;8.902;2023-07-20T04:03:06;15.30;99.90
22558;DHT22;11445;53.816;8.902;2023-07-20T04:05:33;15.30;99.90
22558;DHT22;11445;53.816;8.902;2023-07-20T04:08:01;15.30;99.90
22558;DHT22;11445;53.816;8.902;2023-07-20T04:10:28;15.30;99.90
22558;DHT22;11445;53.816;8.902;2023-07-20T04:12:55;15.40;99.90
22558;DHT22;11445;53.816;8.902;2023-07-20T04:15:22;15.40;99.90
22558;DHT22;11445;53.816;8.902;2023-07-20T04:17:48;15.30;99.90
22558;DHT22;11445;53.816;8.902;2023-07-20T04:20:15;15.40;99.90
22558;DHT22;11445;53.816;8.902;2023-07-20T04:22:43;15.30;99.90
22558;DHT22;11445;53.816;8.902;2023-07-20T04:25:11;15.30;99.90
22558;DHT22;11445;53.816;8.902;2023-07-20T04:27:38;15.30;99.90
22558;DHT22;11445;53.816;8.902;2023-07-20T04:30:07;15.30;99.90
22558;DHT22;11445;53.816;8.902;2023-07-20T04:32:34;15.30;99.90
22558;DHT22;11445;53.816;8.902;2023-07-20T04:35:05;15.20;99.90
22558;DHT22;11445;53.816;8.902;2023-07-20T04:37:32;15.20;99.90
22558;DHT22;11445;53.816;8.902;2023-07-20T04:39:59;15.20;99.90
22558;DHT22;11445;53.816;8.902;2023-07-20T04:42:27;15.20;99.90
22558;DHT22;11445;53.816;8.902;2023-07-20T04:44:54;15.20;99.90
22558;DHT22;11445;53.816;8.902;2023-07-20T04:47:21;15.20;99.90
22558;DHT22;11445;53.816;8.902;2023-07-20T04:49:48;15.30;99.90
22558;DHT22;11445;53.816;8.902;2023-07-20T04:52:15;15.30;99.90
22558;DHT22;11445;53.816;8.902;2023-07-20T04:54:41;15.30;99.90
22558;DHT22;11445;53.816;8.902;2023-07-20T04:57:11;15.40;99.90
22558;DHT22;11445;53.816;8.902;2023-07-20T04:59:39;15.40;99.90
22558;DHT22;11445;53.816;8.902;2023-07-20T05:02:06;15.40;99.90
22558;DHT22;11445;53.816;8.902;2023-07-20T05:04:33;15.50;99.90
22558;DHT22;11445;53.816;8.902;2023-07-20T05:07:00;15.50;99.90
22558;DHT22;11445;53.816;8.902;2023-07-20T05:09:26;15.60;99.90
22558;DHT22;11445;53.816;8.902;2023-07-20T05:11:53;15.60;99.90
22558;DHT22;11445;53.816;8.902;2023-07-20T05:14:20;15.70;99.90
22558;DHT22;11445;53.816;8.902;2023-07-20T05:16:48;15.70;99.90
22558;DHT22;11445;53.816;8.902;2023-07-20T05:19:15;15.70;99.90
22558;DHT22;11445;53.816;8.902;2023-07-20T05:21:42;15.80;99.90
22558;DHT22;11445;53.816;8.902;2023-07-20T05:24:08;15.80;99.90
22558;DHT22;11445;53.816;8.902;2023-07-20T05:26:35;15.80;99.90
22558;DHT22;11445;53.816;8.902;2023-07-20T05:29:03;15.90;99.90
22558;DHT22;11445;53.816;8.902;2023-07-20T05:31:30;15.90;99.90
22558;DHT22;11445;53.816;8.902;2023-07-20T05:33:58;15.90;99.90
22558;DHT22;11445;53.816;8.902;2023-07-20T05:36:25;15.90;99.90
22558;DHT22;11445;53.816;8.902;2023-07-20T05:38:52;15.80;99.90
22558;DHT22;11445;53.816;8.902;2023-07-20T05:41:19;15.80;99.90
22558;DHT22;11445;53.816;8.902;2023-07-20T05:43:46;15.80;99.90
22558;DHT22;11445;53.816;8.902;2023-07-20T05:46:13;15.80;99.90
22558;DHT22;11445;53.816;8.902;2023-07-20T05:48:39;15.80;99.90
22558;DHT22;11445;53.816;8.902;2023-07-20T05:51:08;15.80;99.90
22558;DHT22;11445;53.816;8.902;2023-07-20T05:53:35;15.80;99.90
22558;DHT22;11445;53.816;8.902;2023-07-20T05:56:04;15.80;99.90
22558;DHT22;11445;53.816;8.902;2023-07-20T05:58:30;15.90;99.90
22558;DHT22;11445;53.816;8.902;2023-07-20T06:00:57;16.00;99.90
22558;DHT22;11445;53.816;8.902;2023-07-20T06:03:24;16.10;99.90
22558;DHT22;11445;53.816;8.902;2023-07-20T06:05:51;16.20;99.90
22558;DHT22;11445;53.816;8.902;2023-07-20T06:08:19;16.20;99.90
22558;DHT22;11445;53.816;8.902;2023-07-20T06:10:50;16.20;99.90
22558;DHT22;11445;53.816;8.902;2023-07-20T06:13:17;16.30;99.90
22558;DHT22;11445;53.816;8.902;2023-07-20T06:15:44;16.30;99.90
22558;DHT22;11445;53.816;8.902;2023-07-20T06:18:11;16.20;99.90
22558;DHT22;11445;53.816;8.902;2023-07-20T06:20:38;16.20;99.90
22558;DHT22;11445;53.816;8.902;2023-07-20T06:23:05;16.20;99.90
22558;DHT22;11445;53.816;8.902;2023-07-20T06:25:33;16.20;99.90
22558;DHT22;11445;53.816;8.902;2023-07-20T06:28:00;16.30;99.90
22558;DHT22;11445;53.816;8.902;2023-07-20T06:30:26;16.30;99.90
22558;DHT22;11445;53.816;8.902;2023-07-20T06:32:53;16.40;99.90
22558;DHT22;11445;53.816;8.902;2023-07-20T06:35:20;16.50;99.90
22558;DHT22;11445;53.816;8.902;2023-07-20T06:37:47;16.50;99.90
22558;DHT22;11445;53.816;8.902;2023-07-20T06:40:13;16.60;99.90
22558;DHT22;11445;53.816;8.902;2023-07-20T06:42:41;16.60;99.90
22558;DHT22;11445;53.816;8.902;2023-07-20T06:45:09;16.70;99.90
22558;DHT22;11445;53.816;8.902;2023-07-20T06:47:38;16.70;99.90
22558;DHT22;11445;53.816;8.902;2023-07-20T06:50:06;16.80;99.90
22558;DHT22;11445;53.816;8.902;2023-07-20T06:52:33;16.80;99.90
22558;DHT22;11445;53.816;8.902;2023-07-20T06:54:59;16.80;99.90
22558;DHT22;11445;53.816;8.902;2023-07-20T06:57:26;16.90;99.90
22558;DHT22;11445;53.816;8.902;2023-07-20T06:59:54;16.90;99.90
22558;DHT22;11445;53.816;8.902;2023-07-20T07:02:21;16.90;99.90
22558;DHT22;11445;53.816;8.902;2023-07-20T07:04:48;17.00;99.90
22558;DHT22;11445;53.816;8.902;2023-07-20T07:07:15;17.00;99.90
22558;DHT22;11445;53.816;8.902;2023-07-20T07:09:41;17.10;99.90
22558;DHT22;11445;53.816;8.902;2023-07-20T07:12:08;17.10;99.90
22558;DHT22;11445;53.816;8.902;2023-07-20T07:14:35;17.10;99.90
22558;DHT22;11445;53.816;8.902;2023-07-20T07:17:04;17.20;99.90
22558;DHT22;11445;53.816;8.902;2023-07-20T07:19:31;17.20;99.90
22558;DHT22;11445;53.816;8.902;2023-07-20T07:21:58;17.30;99.90
22558;DHT22;11445;53.816;8.902;2023-07-20T07:24:25;17.20;99.90
22558;DHT22;11445;53.816;8.902;2023-07-20T07:26:53;17.20;99.90
22558;DHT22;11445;53.816;8.902;2023-07-20T07:29:20;17.30;99.90
22558;DHT22;11445;53.816;8.902;2023-07-20T07:31:46;17.20;99.90
22558;DHT22;11445;53.816;8.902;2023-07-20T07:34:15;17.30;99.90
22558;DHT22;11445;53.816;8.902;2023-07-20T07:36:41;17.30;99.90
22558;DHT22;11445;53.816;8.902;2023-07-20T07:39:08;17.40;99.90
22558;DHT22;11445;53.816;8.902;2023-07-20T07:41:36;17.50;99.90
22558;DHT22;11445;53.816;8.902;2023-07-20T07:44:02;17.50;99.90
22558;DHT22;11445;53.816;8.902;2023-07-20T07:46:29;17.60;99.90
22558;DHT22;11445;53.816;8.902;2023-07-20T07:48:56;17.60;99.90
22558;DHT22;11445;53.816;8.902;2023-07-20T07:51:24;17.50;99.90
22558;DHT22;11445;53.816;8.902;2023-07-20T07:53:52;17.20;99.90
22558;DHT22;11445;53.816;8.902;2023-07-20T07:56:19;17.00;99.90
22558;DHT22;11445;53.816;8.902;2023-07-20T07:58:48;16.90;99.90
22558;DHT22;11445;53.816;8.902;2023-07-20T08:01:15;16.80;99.90
22558;DHT22;11445;53.816;8.902;2023-07-20T08:03:42;16.80;99.90
22558;DHT22;11445;53.816;8.902;2023-07-20T08:06:11;16.80;99.90
22558;DHT22;11445;53.816;8.902;2023-07-20T08:08:39;16.80;99.90
22558;DHT22;11445;53.816;8.902;2023-07-20T08:11:06;16.90;99.90
22558;DHT22;11445;53.816;8.902;2023-07-20T08:13:32;17.00;99.90
22558;DHT22;11445;53.816;8.902;2023-07-20T08:15:59;17.10;99.90
22558;DHT22;11445;53.816;8.902;2023-07-20T08:18:27;17.10;99.90
22558;DHT22;11445;53.816;8.902;2023-07-20T08:20:54;17.20;99.90
22558;DHT22;11445;53.816;8.902;2023-07-20T08:23:21;17.40;99.90
22558;DHT22;11445;53.816;8.902;2023-07-20T08:25:49;17.40;99.90
22558;DHT22;11445;53.816;8.902;2023-07-20T08:28:16;17.40;99.90
22558;DHT22;11445;53.816;8.902;2023-07-20T08:30:45;17.50;99.90
22558;DHT22;11445;53.816;8.902;2023-07-20T08:33:13;17.60;99.90
22558;DHT22;11445;53.816;8.902;2023-07-20T08:35:40;17.70;99.90
22558;DHT22;11445;53.816;8.902;2023-07-20T08:38:07;17.80;99.90
22558;DHT22;11445;53.816;8.902;2023-07-20T08:40:39;17.90;99.90
22558;DHT22;11445;53.816;8.902;2023-07-20T08:43:07;17.90;99.90
22558;DHT22;11445;53.816;8.902;2023-07-20T08:45:36;17.90;99.90
22558;DHT22;11445;53.816;8.902;2023-07-20T08:48:05;17.80;99.90
22558;DHT22;11445;53.816;8.902;2023-07-20T08:50:34;17.60;99.90
22558;DHT22;11445;53.816;8.902;2023-07-20T08:53:01;17.50;99.90
22558;DHT22;11445;53.816;8.902;2023-07-20T08:55:29;17.40;99.90
22558;DHT22;11445;53.816;8.902;2023-07-20T08:57:57;17.30;99.90
22558;DHT22;11445;53.816;8.902;2023-07-20T09:00:26;17.30;99.90
22558;DHT22;11445;53.816;8.902;2023-07-20T09:02:54;17.40;99.90
22558;DHT22;11445;53.816;8.902;2023-07-20T09:05:22;17.40;99.90
22558;DHT22;11445;53.816;8.902;2023-07-20T09:07:51;17.50;99.90
22558;DHT22;11445;53.816;8.902;2023-07-20T09:10:18;17.60;99.90
22558;DHT22;11445;53.816;8.902;2023-07-20T09:12:46;17.70;99.90
22558;DHT22;11445;53.816;8.902;2023-07-20T09:15:13;17.80;99.90
22558;DHT22;11445;53.816;8.902;2023-07-20T09:17:46;18.00;99.90
22558;DHT22;11445;53.816;8.902;2023-07-20T09:20:14;18.10;99.90
22558;DHT22;11445;53.816;8.902;2023-07-20T09:22:41;18.20;99.90
22558;DHT22;11445;53.816;8.902;2023-07-20T09:25:11;18.30;99.90
22558;DHT22;11445;53.816;8.902;2023-07-20T09:27:39;18.30;99.90
22558;DHT22;11445;53.816;8.902;2023-07-20T09:30:07;18.10;99.90
22558;DHT22;11445;53.816;8.902;2023-07-20T09:32:38;17.70;99.90
22558;DHT22;11445;53.816;8.902;2023-07-20T09:35:12;17.30;99.90
22558;DHT22;11445;53.816;8.902;2023-07-20T09:37:45;16.90;99.90
22558;DHT22;11445;53.816;8.902;2023-07-20T09:40:15;16.80;99.90
22558;DHT22;11445;53.816;8.902;2023-07-20T09:42:44;16.70;99.90
22558;DHT22;11445;53.816;8.902;2023-07-20T09:45:11;16.60;99.90
22558;DHT22;11445;53.816;8.902;2023-07-20T09:47:39;16.70;99.90
22558;DHT22;11445;53.816;8.902;2023-07-20T09:50:08;16.70;99.90
22558;DHT22;11445;53.816;8.902;2023-07-20T09:52:41;16.70;99.90
22558;DHT22;11445;53.816;8.902;2023-07-20T09:55:10;16.70;99.90
22558;DHT22;11445;53.816;8.902;2023-07-20T09:57:38;16.70;99.90
22558;DHT22;11445;53.816;8.902;2023-07-20T10:00:07;16.70;99.90
22558;DHT22;11445;53.816;8.902;2023-07-20T10:02:42;16.80;99.90
22558;DHT22;11445;53.816;8.902;2023-07-20T10:05:12;16.90;99.90
22558;DHT22;11445;53.816;8.902;2023-07-20T10:07:44;17.00;99.90
22558;DHT22;11445;53.816;8.902;2023-07-20T10:10:14;17.10;99.90
22558;DHT22;11445;53.816;8.902;2023-07-20T10:12:43;17.20;99.90
22558;DHT22;11445;53.816;8.902;2023-07-20T10:15:12;17.40;99.90
22558;DHT22;11445;53.816;8.902;2023-07-20T10:17:46;17.60;99.90
22558;DHT22;11445;53.816;8.902;2023-07-20T10:20:17;17.60;99.90
22558;DHT22;11445;53.816;8.902;2023-07-20T10:22:46;17.60;99.90
22558;DHT22;11445;53.816;8.902;2023-07-20T10:25:14;17.60;99.90
22558;DHT22;11445;53.816;8.902;2023-07-20T10:27:42;17.50;99.90
22558;DHT22;11445;53.816;8.902;2023-07-20T10:30:09;17.40;99.90
22558;DHT22;11445;53.816;8.902;2023-07-20T10:32:37;17.20;99.90
22558;DHT22;11445;53.816;8.902;2023-07-20T10:35:12;17.10;99.90
22558;DHT22;11445;53.816;8.902;2023-07-20T10:37:48;17.20;99.90
22558;DHT22;11445;53.816;8.902;2023-07-20T10:40:29;17.30;99.90
22558;DHT22;11445;53.816;8.902;2023-07-20T10:42:58;17.50;99.90
22558;DHT22;11445;53.816;8.902;2023-07-20T10:45:42;17.60;99.90
22558;DHT22;11445;53.816;8.902;2023-07-20T10:48:16;17.80;99.90
22558;DHT22;11445;53.816;8.902;2023-07-20T10:50:43;17.90;99.90
22558;DHT22;11445;53.816;8.902;2023-07-20T10:53:13;17.90;99.90
22558;DHT22;11445;53.816;8.902;2023-07-20T10:55:41;17.90;99.90
22558;DHT22;11445;53.816;8.902;2023-07-20T10:58:10;17.80;99.90
22558;DHT22;11445;53.816;8.902;2023-07-20T11:00:38;17.70;99.90
22558;DHT22;11445;53.816;8.902;2023-07-20T11:03:27;17.50;99.90
22558;DHT22;11445;53.816;8.902;2023-07-20T11:05:54;17.40;99.90
22558;DHT22;11445;53.816;8.902;2023-07-20T11:08:38;17.20;99.90
22558;DHT22;11445;53.816;8.902;2023-07-20T11:11:24;17.10;99.90
22558;DHT22;11445;53.816;8.902;2023-07-20T11:13:59;17.00;99.90
22558;DHT22;11445;53.816;8.902;2023-07-20T11:16:37;17.20;99.90
22558;DHT22;11445;53.816;8.902;2023-07-20T11:19:05;17.40;99.90
22558;DHT22;11445;53.816;8.902;2023-07-20T11:21:36;17.50;99.90
22558;DHT22;11445;53.816;8.902;2023-07-20T11:24:06;17.60;99.90
22558;DHT22;11445;53.816;8.902;2023-07-20T11:26:42;17.80;99.90
22558;DHT22;11445;53.816;8.902;2023-07-20T11:29:09;17.80;99.90
22558;DHT22;11445;53.816;8.902;2023-07-20T11:31:37;18.00;99.90
22558;DHT22;11445;53.816;8.902;2023-07-20T11:34:04;18.10;99.90
22558;DHT22;11445;53.816;8.902;2023-07-20T11:36:31;18.20;99.90
22558;DHT22;11445;53.816;8.902;2023-07-20T11:38:58;18.20;99.90
22558;DHT22;11445;53.816;8.902;2023-07-20T11:41:26;18.30;99.90
22558;DHT22;11445;53.816;8.902;2023-07-20T11:43:54;18.30;99.90
22558;DHT22;11445;53.816;8.902;2023-07-20T11:46:21;18.40;99.90
22558;DHT22;11445;53.816;8.902;2023-07-20T11:48:48;18.50;99.90
22558;DHT22;11445;53.816;8.902;2023-07-20T11:51:16;18.50;99.90
22558;DHT22;11445;53.816;8.902;2023-07-20T11:53:44;18.40;99.90
22558;DHT22;11445;53.816;8.902;2023-07-20T11:56:11;18.30;99.90
22558;DHT22;11445;53.816;8.902;2023-07-20T11:58:43;18.00;99.90
22558;DHT22;11445;53.816;8.902;2023-07-20T12:01:11;17.90;99.90
22558;DHT22;11445;53.816;8.902;2023-07-20T12:03:38;17.70;99.90
22558;DHT22;11445;53.816;8.902;2023-07-20T12:06:08;17.70;99.90
22558;DHT22;11445;53.816;8.902;2023-07-20T12:08:35;17.70;99.90
22558;DHT22;11445;53.816;8.902;2023-07-20T12:11:04;17.80;99.90
22558;DHT22;11445;53.816;8.902;2023-07-20T12:13:38;18.00;99.90
22558;DHT22;11445;53.816;8.902;2023-07-20T12:16:13;18.00;99.90
22558;DHT22;11445;53.816;8.902;2023-07-20T12:18:40;18.10;99.90
22558;DHT22;11445;53.816;8.902;2023-07-20T12:21:07;18.10;99.90
22558;DHT22;11445;53.816;8.902;2023-07-20T12:23:35;18.20;99.90
22558;DHT22;11445;53.816;8.902;2023-07-20T12:26:06;18.10;99.90
22558;DHT22;11445;53.816;8.902;2023-07-20T12:28:33;18.00;99.90
22558;DHT22;11445;53.816;8.902;2023-07-20T12:31:02;17.90;99.90
22558;DHT22;11445;53.816;8.902;2023-07-20T12:33:30;17.90;99.90
22558;DHT22;11445;53.816;8.902;2023-07-20T12:35:57;18.00;99.90
22558;DHT22;11445;53.816;8.902;2023-07-20T12:38:24;18.00;99.90
22558;DHT22;11445;53.816;8.902;2023-07-20T12:40:52;18.20;99.90
22558;DHT22;11445;53.816;8.902;2023-07-20T12:43:20;18.20;99.90
22558;DHT22;11445;53.816;8.902;2023-07-20T12:45:47;18.30;99.90
22558;DHT22;11445;53.816;8.902;2023-07-20T12:48:14;18.30;99.90
22558;DHT22;11445;53.816;8.902;2023-07-20T12:50:42;18.50;99.90
22558;DHT22;11445;53.816;8.902;2023-07-20T12:53:09;18.50;99.90
22558;DHT22;11445;53.816;8.902;2023-07-20T12:55:37;18.50;99.90
22558;DHT22;11445;53.816;8.902;2023-07-20T12:58:05;18.50;99.90
22558;DHT22;11445;53.816;8.902;2023-07-20T13:00:32;18.50;99.90
22558;DHT22;11445;53.816;8.902;2023-07-20T13:02:58;18.40;99.90
22558;DHT22;11445;53.816;8.902;2023-07-20T13:05:27;18.40;99.90
22558;DHT22;11445;53.816;8.902;2023-07-20T13:07:56;18.50;99.90
22558;DHT22;11445;53.816;8.902;2023-07-20T13:10:22;18.60;99.90
22558;DHT22;11445;53.816;8.902;2023-07-20T13:12:49;18.60;99.90
22558;DHT22;11445;53.816;8.902;2023-07-20T13:15:17;18.50;99.90
22558;DHT22;11445;53.816;8.902;2023-07-20T13:17:44;18.50;99.90
22558;DHT22;11445;53.816;8.902;2023-07-20T13:20:11;18.40;99.90
22558;DHT22;11445;53.816;8.902;2023-07-20T13:22:39;18.40;99.90
22558;DHT22;11445;53.816;8.902;2023-07-20T13:25:08;18.50;99.90
22558;DHT22;11445;53.816;8.902;2023-07-20T13:27:36;18.60;99.90
22558;DHT22;11445;53.816;8.902;2023-07-20T13:30:04;18.60;99.90
22558;DHT22;11445;53.816;8.902;2023-07-20T13:32:32;18.70;99.90
22558;DHT22;11445;53.816;8.902;2023-07-20T13:34:59;18.80;99.90
22558;DHT22;11445;53.816;8.902;2023-07-20T13:37:26;18.80;99.90
22558;DHT22;11445;53.816;8.902;2023-07-20T13:39:53;18.80;99.90
22558;DHT22;11445;53.816;8.902;2023-07-20T13:42:21;18.80;99.90
22558;DHT22;11445;53.816;8.902;2023-07-20T13:44:48;18.80;99.90
22558;DHT22;11445;53.816;8.902;2023-07-20T13:47:15;19.00;99.90
22558;DHT22;11445;53.816;8.902;2023-07-20T13:49:43;19.10;99.90
22558;DHT22;11445;53.816;8.902;2023-07-20T13:52:10;19.20;99.90
22558;DHT22;11445;53.816;8.902;2023-07-20T13:54:37;19.20;99.90
22558;DHT22;11445;53.816;8.902;2023-07-20T13:57:04;19.20;99.90
22558;DHT22;11445;53.816;8.902;2023-07-20T13:59:32;19.10;99.90
22558;DHT22;11445;53.816;8.902;2023-07-20T14:01:59;19.10;99.90
22558;DHT22;11445;53.816;8.902;2023-07-20T14:04:26;19.10;99.90
22558;DHT22;11445;53.816;8.902;2023-07-20T14:06:53;19.10;99.90
22558;DHT22;11445;53.816;8.902;2023-07-20T14:09:19;19.10;99.90
22558;DHT22;11445;53.816;8.902;2023-07-20T14:11:46;19.10;99.90
22558;DHT22;11445;53.816;8.902;2023-07-20T14:14:13;19.10;99.90
22558;DHT22;11445;53.816;8.902;2023-07-20T14:16:41;19.10;99.90
22558;DHT22;11445;53.816;8.902;2023-07-20T14:19:08;19.10;99.90
22558;DHT22;11445;53.816;8.902;2023-07-20T14:21:35;19.10;99.90
22558;DHT22;11445;53.816;8.902;2023-07-20T14:24:01;19.10;99.90
22558;DHT22;11445;53.816;8.902;2023-07-20T14:26:28;19.10;99.90
22558;DHT22;11445;53.816;8.902;2023-07-20T14:28:55;19.10;99.90
22558;DHT22;11445;53.816;8.902;2023-07-20T14:31:22;19.10;99.90
22558;DHT22;11445;53.816;8.902;2023-07-20T14:33:50;19.10;99.90
22558;DHT22;11445;53.816;8.902;2023-07-20T14:36:17;19.10;99.90
22558;DHT22;11445;53.816;8.902;2023-07-20T14:38:44;19.00;99.90
22558;DHT22;11445;53.816;8.902;2023-07-20T14:41:10;19.10;99.90
22558;DHT22;11445;53.816;8.902;2023-07-20T14:43:37;19.00;99.90
22558;DHT22;11445;53.816;8.902;2023-07-20T14:46:05;19.00;99.90
22558;DHT22;11445;53.816;8.902;2023-07-20T14:48:32;19.00;99.90
22558;DHT22;11445;53.816;8.902;2023-07-20T14:51:00;19.00;99.90
22558;DHT22;11445;53.816;8.902;2023-07-20T14:53:26;19.10;99.90
22558;DHT22;11445;53.816;8.902;2023-07-20T14:55:58;19.00;99.90
22558;DHT22;11445;53.816;8.902;2023-07-20T14:58:25;19.00;99.90
22558;DHT22;11445;53.816;8.902;2023-07-20T15:00:52;19.00;99.90
22558;DHT22;11445;53.816;8.902;2023-07-20T15:03:19;19.00;99.90
22558;DHT22;11445;53.816;8.902;2023-07-20T15:05:46;19.00;99.90
22558;DHT22;11445;53.816;8.902;2023-07-20T15:08:14;19.00;99.90
22558;DHT22;11445;53.816;8.902;2023-07-20T15:10:41;19.10;99.90
22558;DHT22;11445;53.816;8.902;2023-07-20T15:13:09;19.10;99.90
22558;DHT22;11445;53.816;8.902;2023-07-20T15:15:36;19.10;99.90
22558;DHT22;11445;53.816;8.902;2023-07-20T15:18:03;19.20;99.90
22558;DHT22;11445;53.816;8.902;2023-07-20T15:20:30;19.20;99.90
22558;DHT22;11445;53.816;8.902;2023-07-20T15:22:57;19.20;99.90
22558;DHT22;11445;53.816;8.902;2023-07-20T15:25:25;19.30;99.90
22558;DHT22;11445;53.816;8.902;2023-07-20T15:27:52;19.20;99.90
22558;DHT22;11445;53.816;8.902;2023-07-20T15:30:19;19.20;99.90
22558;DHT22;11445;53.816;8.902;2023-07-20T15:32:47;19.20;99.90
22558;DHT22;11445;53.816;8.902;2023-07-20T15:35:14;19.20;99.90
22558;DHT22;11445;53.816;8.902;2023-07-20T15:37:40;19.30;99.90